sensor_id;sensor_type;location;lat;lon;timestamp;P1;durP1;ratioP1;P2;durP2;ratioP2
74233;SDS011;62591;55.764;37.718;2023-01-08T00:01:20;17.88;;;4.35;;
74233;SDS011;62591;55.764;37.718;2023-01-08T00:03:58;16.23;;;5.00;;
74233;SDS011;62591;55.764;37.718;2023-01-08T00:06:29;7.45;;;2.90;;
74233;SDS011;62591;55.764;37.718;2023-01-08T00:09:00;9.85;;;3.88;;
74233;SDS011;62591;55.764;37.718;2023-01-08T00:11:36;9.48;;;3.42;;
74233;SDS011;62591;55.764;37.718;2023-01-08T00:14:12;14.95;;;4.03;;
74233;SDS011;62591;55.764;37.718;2023-01-08T00:16:41;11.25;;;3.65;;
74233;SDS011;62591;55.764;37.718;2023-01-08T00:19:09;8.80;;;3.97;;
74233;SDS011;62591;55.764;37.718;2023-01-08T00:21:38;15.68;;;4.68;;
74233;SDS011;62591;55.764;37.718;2023-01-08T00:24:12;6.35;;;2.97;;
74233;SDS011;62591;55.764;37.718;2023-01-08T00:26:42;6.60;;;2.72;;
74233;SDS011;62591;55.764;37.718;2023-01-08T00:29:16;8.65;;;2.92;;
74233;SDS011;62591;55.764;37.718;2023-01-08T00:31:56;9.93;;;3.00;;
74233;SDS011;62591;55.764;37.718;2023-01-08T00:34:25;4.93;;;2.22;;
74233;SDS011;62591;55.764;37.718;2023-01-08T00:36:56;7.40;;;2.63;;
74233;SDS011;62591;55.764;37.718;2023-01-08T00:39:33;7.75;;;2.75;;
74233;SDS011;62591;55.764;37.718;2023-01-08T00:42:03;8.00;;;3.33;;
74233;SDS011;62591;55.764;37.718;2023-01-08T00:44:31;5.97;;;2.65;;
74233;SDS011;62591;55.764;37.718;2023-01-08T00:47:03;6.75;;;2.47;;
74233;SDS011;62591;55.764;37.718;2023-01-08T00:49:32;8.05;;;3.20;;
74233;SDS011;62591;55.764;37.718;2023-01-08T00:52:00;9.35;;;3.13;;
74233;SDS011;62591;55.764;37.718;2023-01-08T00:54:29;8.27;;;2.88;;
74233;SDS011;62591;55.764;37.718;2023-01-08T00:56:58;6.22;;;2.50;;
74233;SDS011;62591;55.764;37.718;2023-01-08T00:59:28;5.72;;;2.60;;
74233;SDS011;62591;55.764;37.718;2023-01-08T01:02:00;7.22;;;2.95;;
74233;SDS011;62591;55.764;37.718;2023-01-08T01:04:29;10.38;;;2.75;;
74233;SDS011;62591;55.764;37.718;2023-01-08T01:06:59;8.27;;;2.42;;
74233;SDS011;62591;55.764;37.718;2023-01-08T01:09:44;6.00;;;2.35;;
74233;SDS011;62591;55.764;37.718;2023-01-08T01:12:13;10.07;;;3.00;;
74233;SDS011;62591;55.764;37.718;2023-01-08T01:14:44;7.22;;;2.97;;
74233;SDS011;62591;55.764;37.718;2023-01-08T01:17:14;8.23;;;2.92;;
74233;SDS011;62591;55.764;37.718;2023-01-08T01:19:49;7.22;;;2.67;;
74233;SDS011;62591;55.764;37.718;2023-01-08T01:22:17;9.30;;;2.20;;
74233;SDS011;62591;55.764;37.718;2023-01-08T01:24:46;7.00;;;2.78;;
74233;SDS011;62591;55.764;37.718;2023-01-08T01:27:17;7.22;;;2.67;;
74233;SDS011;62591;55.764;37.718;2023-01-08T01:29:46;8.98;;;3.03;;
74233;SDS011;62591;55.764;37.718;2023-01-08T01:32:15;7.55;;;2.78;;
74233;SDS011;62591;55.764;37.718;2023-01-08T01:34:44;7.43;;;2.90;;
74233;SDS011;62591;55.764;37.718;2023-01-08T01:37:15;12.10;;;2.67;;
74233;SDS011;62591;55.764;37.718;2023-01-08T01:39:43;7.30;;;2.80;;
74233;SDS011;62591;55.764;37.718;2023-01-08T01:42:15;8.57;;;2.60;;
74233;SDS011;62591;55.764;37.718;2023-01-08T01:45:00;8.40;;;2.38;;
74233;SDS011;62591;55.764;37.718;2023-01-08T01:47:31;10.07;;;3.08;;
74233;SDS011;62591;55.764;37.718;2023-01-08T01:50:04;8.48;;;2.88;;
74233;SDS011;62591;55.764;37.718;2023-01-08T01:52:41;8.48;;;2.88;;
74233;SDS011;62591;55.764;37.718;2023-01-08T01:55:12;7.88;;;3.50;;
74233;SDS011;62591;55.764;37.718;2023-01-08T01:57:43;8.02;;;3.00;;
74233;SDS011;62591;55.764;37.718;2023-01-08T02:00:20;9.68;;;3.30;;
74233;SDS011;62591;55.764;37.718;2023-01-08T02:02:51;8.68;;;3.00;;
74233;SDS011;62591;55.764;37.718;2023-01-08T02:05:20;9.13;;;3.38;;
74233;SDS011;62591;55.764;37.718;2023-01-08T02:07:54;9.68;;;3.15;;
74233;SDS011;62591;55.764;37.718;2023-01-08T02:10:29;8.18;;;2.92;;
74233;SDS011;62591;55.764;37.718;2023-01-08T02:13:04;8.15;;;3.03;;
74233;SDS011;62591;55.764;37.718;2023-01-08T02:15:44;10.23;;;3.33;;
74233;SDS011;62591;55.764;37.718;2023-01-08T02:18:19;4.78;;;2.28;;
74233;SDS011;62591;55.764;37.718;2023-01-08T02:20:53;8.55;;;3.25;;
74233;SDS011;62591;55.764;37.718;2023-01-08T02:23:29;7.47;;;3.15;;
74233;SDS011;62591;55.764;37.718;2023-01-08T02:26:08;6.95;;;2.92;;
74233;SDS011;62591;55.764;37.718;2023-01-08T02:28:47;5.60;;;2.35;;
74233;SDS011;62591;55.764;37.718;2023-01-08T02:31:20;8.20;;;3.25;;
74233;SDS011;62591;55.764;37.718;2023-01-08T02:33:51;9.05;;;3.10;;
74233;SDS011;62591;55.764;37.718;2023-01-08T02:36:25;8.40;;;2.78;;
74233;SDS011;62591;55.764;37.718;2023-01-08T02:39:14;9.55;;;3.42;;
74233;SDS011;62591;55.764;37.718;2023-01-08T02:41:53;11.20;;;2.72;;
74233;SDS011;62591;55.764;37.718;2023-01-08T02:44:34;8.02;;;2.60;;
74233;SDS011;62591;55.764;37.718;2023-01-08T02:47:14;10.93;;;3.17;;
74233;SDS011;62591;55.764;37.718;2023-01-08T02:49:49;9.70;;;3.38;;
74233;SDS011;62591;55.764;37.718;2023-01-08T02:52:21;12.13;;;3.83;;
74233;SDS011;62591;55.764;37.718;2023-01-08T02:54:55;8.05;;;3.30;;
74233;SDS011;62591;55.764;37.718;2023-01-08T02:57:27;6.75;;;3.15;;
74233;SDS011;62591;55.764;37.718;2023-01-08T02:59:59;13.82;;;3.63;;
74233;SDS011;62591;55.764;37.718;2023-01-08T03:02:29;7.03;;;3.25;;
74233;SDS011;62591;55.764;37.718;2023-01-08T03:05:05;11.23;;;3.10;;
74233;SDS011;62591;55.764;37.718;2023-01-08T03:07:38;12.13;;;3.53;;
74233;SDS011;62591;55.764;37.718;2023-01-08T03:10:07;8.98;;;3.33;;
74233;SDS011;62591;55.764;37.718;2023-01-08T03:12:42;6.00;;;2.83;;
74233;SDS011;62591;55.764;37.718;2023-01-08T03:15:18;11.80;;;3.63;;
74233;SDS011;62591;55.764;37.718;2023-01-08T03:17:53;8.10;;;2.63;;
74233;SDS011;62591;55.764;37.718;2023-01-08T03:20:27;8.80;;;3.30;;
74233;SDS011;62591;55.764;37.718;2023-01-08T03:22:59;9.55;;;3.13;;
74233;SDS011;62591;55.764;37.718;2023-01-08T03:25:33;9.85;;;3.22;;
74233;SDS011;62591;55.764;37.718;2023-01-08T03:28:09;13.25;;;4.28;;
74233;SDS011;62591;55.764;37.718;2023-01-08T03:30:42;10.43;;;3.53;;
74233;SDS011;62591;55.764;37.718;2023-01-08T03:33:13;9.65;;;3.28;;
74233;SDS011;62591;55.764;37.718;2023-01-08T03:35:47;8.68;;;3.30;;
74233;SDS011;62591;55.764;37.718;2023-01-08T03:38:21;7.40;;;2.70;;
74233;SDS011;62591;55.764;37.718;2023-01-08T03:40:55;9.55;;;3.28;;
74233;SDS011;62591;55.764;37.718;2023-01-08T03:43:28;9.38;;;3.28;;
74233;SDS011;62591;55.764;37.718;2023-01-08T03:46:06;8.50;;;2.55;;
74233;SDS011;62591;55.764;37.718;2023-01-08T03:48:41;6.90;;;2.88;;
74233;SDS011;62591;55.764;37.718;2023-01-08T03:51:11;8.35;;;2.70;;
74233;SDS011;62591;55.764;37.718;2023-01-08T03:53:40;8.60;;;3.55;;
74233;SDS011;62591;55.764;37.718;2023-01-08T03:56:08;8.45;;;3.35;;
74233;SDS011;62591;55.764;37.718;2023-01-08T03:58:38;8.60;;;3.13;;
74233;SDS011;62591;55.764;37.718;2023-01-08T04:01:08;11.90;;;3.80;;
74233;SDS011;62591;55.764;37.718;2023-01-08T04:03:43;12.07;;;3.50;;
74233;SDS011;62591;55.764;37.718;2023-01-08T04:06:14;9.05;;;2.80;;
74233;SDS011;62591;55.764;37.718;2023-01-08T04:08:45;11.80;;;3.35;;
74233;SDS011;62591;55.764;37.718;2023-01-08T04:11:14;7.13;;;2.55;;
74233;SDS011;62591;55.764;37.718;2023-01-08T04:13:44;6.95;;;2.70;;
74233;SDS011;62591;55.764;37.718;2023-01-08T04:16:20;9.65;;;3.13;;
74233;SDS011;62591;55.764;37.718;2023-01-08T04:18:49;9.27;;;3.15;;
74233;SDS011;62591;55.764;37.718;2023-01-08T04:21:26;9.50;;;3.42;;
74233;SDS011;62591;55.764;37.718;2023-01-08T04:23:54;8.98;;;2.78;;
74233;SDS011;62591;55.764;37.718;2023-01-08T04:26:23;11.25;;;3.30;;
74233;SDS011;62591;55.764;37.718;2023-01-08T04:28:55;7.93;;;3.42;;
74233;SDS011;62591;55.764;37.718;2023-01-08T04:31:31;9.38;;;3.90;;
74233;SDS011;62591;55.764;37.718;2023-01-08T04:33:59;15.98;;;4.07;;
74233;SDS011;62591;55.764;37.718;2023-01-08T04:36:30;10.25;;;3.63;;
74233;SDS011;62591;55.764;37.718;2023-01-08T04:39:00;13.40;;;3.83;;
74233;SDS011;62591;55.764;37.718;2023-01-08T04:41:31;16.60;;;4.55;;
74233;SDS011;62591;55.764;37.718;2023-01-08T04:44:01;10.05;;;3.47;;
74233;SDS011;62591;55.764;37.718;2023-01-08T04:46:33;12.32;;;4.10;;
74233;SDS011;62591;55.764;37.718;2023-01-08T04:49:04;12.63;;;4.00;;
74233;SDS011;62591;55.764;37.718;2023-01-08T04:51:32;18.67;;;5.53;;
74233;SDS011;62591;55.764;37.718;2023-01-08T04:54:02;24.55;;;4.72;;
74233;SDS011;62591;55.764;37.718;2023-01-08T04:56:33;13.25;;;4.82;;
74233;SDS011;62591;55.764;37.718;2023-01-08T04:59:03;13.68;;;4.47;;
74233;SDS011;62591;55.764;37.718;2023-01-08T05:01:31;14.70;;;4.45;;
74233;SDS011;62591;55.764;37.718;2023-01-08T05:04:00;13.80;;;4.65;;
74233;SDS011;62591;55.764;37.718;2023-01-08T05:06:31;10.02;;;4.03;;
74233;SDS011;62591;55.764;37.718;2023-01-08T05:09:00;10.30;;;4.32;;
74233;SDS011;62591;55.764;37.718;2023-01-08T05:11:29;11.18;;;4.35;;
74233;SDS011;62591;55.764;37.718;2023-01-08T05:13:57;13.80;;;4.45;;
74233;SDS011;62591;55.764;37.718;2023-01-08T05:16:27;14.73;;;4.95;;
74233;SDS011;62591;55.764;37.718;2023-01-08T05:18:58;11.20;;;3.92;;
74233;SDS011;62591;55.764;37.718;2023-01-08T05:21:28;12.77;;;5.03;;
74233;SDS011;62591;55.764;37.718;2023-01-08T05:23:57;10.75;;;4.90;;
74233;SDS011;62591;55.764;37.718;2023-01-08T05:26:27;12.38;;;4.88;;
74233;SDS011;62591;55.764;37.718;2023-01-08T05:28:56;16.08;;;5.13;;
74233;SDS011;62591;55.764;37.718;2023-01-08T05:31:25;14.75;;;5.20;;
74233;SDS011;62591;55.764;37.718;2023-01-08T05:33:56;11.60;;;4.35;;
74233;SDS011;62591;55.764;37.718;2023-01-08T05:36:24;12.77;;;4.65;;
74233;SDS011;62591;55.764;37.718;2023-01-08T05:38:55;15.80;;;4.40;;
74233;SDS011;62591;55.764;37.718;2023-01-08T05:41:24;13.15;;;4.82;;
74233;SDS011;62591;55.764;37.718;2023-01-08T05:43:53;10.38;;;4.53;;
74233;SDS011;62591;55.764;37.718;2023-01-08T05:46:21;17.65;;;5.10;;
74233;SDS011;62591;55.764;37.718;2023-01-08T05:48:50;10.30;;;4.68;;
74233;SDS011;62591;55.764;37.718;2023-01-08T05:51:20;15.80;;;5.95;;
74233;SDS011;62591;55.764;37.718;2023-01-08T05:53:49;11.38;;;4.07;;
74233;SDS011;62591;55.764;37.718;2023-01-08T05:56:17;12.68;;;4.72;;
74233;SDS011;62591;55.764;37.718;2023-01-08T05:58:46;11.10;;;4.18;;
74233;SDS011;62591;55.764;37.718;2023-01-08T06:01:15;13.45;;;3.78;;
74233;SDS011;62591;55.764;37.718;2023-01-08T06:03:44;11.25;;;3.78;;
74233;SDS011;62591;55.764;37.718;2023-01-08T06:06:12;9.23;;;3.85;;
74233;SDS011;62591;55.764;37.718;2023-01-08T06:08:43;5.13;;;2.80;;
74233;SDS011;62591;55.764;37.718;2023-01-08T06:11:11;7.90;;;2.85;;
74233;SDS011;62591;55.764;37.718;2023-01-08T06:13:40;8.02;;;3.08;;
74233;SDS011;62591;55.764;37.718;2023-01-08T06:16:10;5.13;;;2.00;;
74233;SDS011;62591;55.764;37.718;2023-01-08T06:18:39;4.72;;;2.10;;
74233;SDS011;62591;55.764;37.718;2023-01-08T06:21:07;6.60;;;2.03;;
74233;SDS011;62591;55.764;37.718;2023-01-08T06:23:38;8.40;;;2.47;;
74233;SDS011;62591;55.764;37.718;2023-01-08T06:26:08;7.10;;;2.33;;
74233;SDS011;62591;55.764;37.718;2023-01-08T06:28:37;8.07;;;2.47;;
74233;SDS011;62591;55.764;37.718;2023-01-08T06:31:06;7.65;;;2.95;;
74233;SDS011;62591;55.764;37.718;2023-01-08T06:33:35;9.10;;;2.97;;
74233;SDS011;62591;55.764;37.718;2023-01-08T06:36:03;9.98;;;2.75;;
74233;SDS011;62591;55.764;37.718;2023-01-08T06:38:34;6.80;;;2.05;;
74233;SDS011;62591;55.764;37.718;2023-01-08T06:41:03;14.55;;;3.03;;
74233;SDS011;62591;55.764;37.718;2023-01-08T06:43:34;7.63;;;3.03;;
74233;SDS011;62591;55.764;37.718;2023-01-08T06:46:03;8.30;;;3.30;;
74233;SDS011;62591;55.764;37.718;2023-01-08T06:51:01;13.57;;;4.75;;
74233;SDS011;62591;55.764;37.718;2023-01-08T06:53:30;7.85;;;2.85;;
74233;SDS011;62591;55.764;37.718;2023-01-08T06:56:00;8.43;;;3.28;;
74233;SDS011;62591;55.764;37.718;2023-01-08T06:58:30;7.30;;;2.97;;
74233;SDS011;62591;55.764;37.718;2023-01-08T07:01:00;10.80;;;3.60;;
74233;SDS011;62591;55.764;37.718;2023-01-08T07:03:29;12.43;;;3.35;;
74233;SDS011;62591;55.764;37.718;2023-01-08T07:06:00;9.43;;;3.35;;
74233;SDS011;62591;55.764;37.718;2023-01-08T07:08:29;9.73;;;3.90;;
74233;SDS011;62591;55.764;37.718;2023-01-08T07:11:00;10.13;;;3.80;;
74233;SDS011;62591;55.764;37.718;2023-01-08T07:13:29;10.30;;;4.38;;
74233;SDS011;62591;55.764;37.718;2023-01-08T07:16:04;14.50;;;4.03;;
74233;SDS011;62591;55.764;37.718;2023-01-08T07:18:34;9.65;;;3.75;;
74233;SDS011;62591;55.764;37.718;2023-01-08T07:21:03;11.20;;;4.55;;
74233;SDS011;62591;55.764;37.718;2023-01-08T07:23:33;8.75;;;4.22;;
74233;SDS011;62591;55.764;37.718;2023-01-08T07:26:02;10.88;;;4.45;;
74233;SDS011;62591;55.764;37.718;2023-01-08T07:28:33;15.75;;;4.80;;
74233;SDS011;62591;55.764;37.718;2023-01-08T07:31:02;13.48;;;5.70;;
74233;SDS011;62591;55.764;37.718;2023-01-08T07:33:33;12.45;;;4.20;;
74233;SDS011;62591;55.764;37.718;2023-01-08T07:36:03;14.52;;;5.40;;
74233;SDS011;62591;55.764;37.718;2023-01-08T07:38:32;11.43;;;3.65;;
74233;SDS011;62591;55.764;37.718;2023-01-08T07:41:01;8.73;;;3.53;;
74233;SDS011;62591;55.764;37.718;2023-01-08T07:43:30;7.75;;;3.25;;
74233;SDS011;62591;55.764;37.718;2023-01-08T07:46:00;7.93;;;3.42;;
74233;SDS011;62591;55.764;37.718;2023-01-08T07:48:30;8.57;;;3.53;;
74233;SDS011;62591;55.764;37.718;2023-01-08T07:50:59;11.35;;;3.67;;
74233;SDS011;62591;55.764;37.718;2023-01-08T07:53:29;9.48;;;3.50;;
74233;SDS011;62591;55.764;37.718;2023-01-08T07:55:58;15.48;;;3.90;;
74233;SDS011;62591;55.764;37.718;2023-01-08T07:58:27;10.00;;;3.53;;
74233;SDS011;62591;55.764;37.718;2023-01-08T08:00:56;8.88;;;3.78;;
74233;SDS011;62591;55.764;37.718;2023-01-08T08:03:25;12.98;;;3.42;;
74233;SDS011;62591;55.764;37.718;2023-01-08T08:05:55;12.57;;;3.55;;
74233;SDS011;62591;55.764;37.718;2023-01-08T08:08:24;9.25;;;3.70;;
74233;SDS011;62591;55.764;37.718;2023-01-08T08:10:52;15.32;;;5.22;;
74233;SDS011;62591;55.764;37.718;2023-01-08T08:13:21;10.38;;;4.75;;
74233;SDS011;62591;55.764;37.718;2023-01-08T08:15:49;10.10;;;3.70;;
74233;SDS011;62591;55.764;37.718;2023-01-08T08:18:18;11.27;;;3.78;;
74233;SDS011;62591;55.764;37.718;2023-01-08T08:20:47;8.57;;;3.28;;
74233;SDS011;62591;55.764;37.718;2023-01-08T08:23:19;10.40;;;3.47;;
74233;SDS011;62591;55.764;37.718;2023-01-08T08:25:47;10.10;;;3.22;;
74233;SDS011;62591;55.764;37.718;2023-01-08T08:28:17;11.55;;;3.60;;
74233;SDS011;62591;55.764;37.718;2023-01-08T08:30:46;8.80;;;3.72;;
74233;SDS011;62591;55.764;37.718;2023-01-08T08:33:15;12.10;;;4.10;;
74233;SDS011;62591;55.764;37.718;2023-01-08T08:35:46;8.95;;;3.55;;
74233;SDS011;62591;55.764;37.718;2023-01-08T08:38:16;8.70;;;3.47;;
74233;SDS011;62591;55.764;37.718;2023-01-08T08:40:46;8.77;;;3.55;;
74233;SDS011;62591;55.764;37.718;2023-01-08T08:43:15;7.30;;;3.45;;
74233;SDS011;62591;55.764;37.718;2023-01-08T08:45:43;11.05;;;4.30;;
74233;SDS011;62591;55.764;37.718;2023-01-08T08:48:12;12.13;;;4.75;;
74233;SDS011;62591;55.764;37.718;2023-01-08T08:50:42;12.90;;;5.53;;
74233;SDS011;62591;55.764;37.718;2023-01-08T08:53:11;12.30;;;5.68;;
74233;SDS011;62591;55.764;37.718;2023-01-08T08:55:39;15.82;;;5.30;;
74233;SDS011;62591;55.764;37.718;2023-01-08T08:58:10;13.93;;;4.95;;
74233;SDS011;62591;55.764;37.718;2023-01-08T09:00:40;18.92;;;5.28;;
74233;SDS011;62591;55.764;37.718;2023-01-08T09:03:11;16.90;;;5.72;;
74233;SDS011;62591;55.764;37.718;2023-01-08T09:05:41;21.38;;;7.78;;
74233;SDS011;62591;55.764;37.718;2023-01-08T09:08:10;22.40;;;8.00;;
74233;SDS011;62591;55.764;37.718;2023-01-08T09:10:40;19.77;;;7.70;;
74233;SDS011;62591;55.764;37.718;2023-01-08T09:13:10;21.27;;;7.85;;
74233;SDS011;62591;55.764;37.718;2023-01-08T09:15:39;32.83;;;14.73;;
74233;SDS011;62591;55.764;37.718;2023-01-08T09:18:08;21.65;;;7.78;;
74233;SDS011;62591;55.764;37.718;2023-01-08T09:20:41;20.25;;;8.10;;
74233;SDS011;62591;55.764;37.718;2023-01-08T09:23:10;18.75;;;7.18;;
74233;SDS011;62591;55.764;37.718;2023-01-08T09:25:38;13.27;;;6.13;;
74233;SDS011;62591;55.764;37.718;2023-01-08T09:28:07;15.05;;;6.65;;
74233;SDS011;62591;55.764;37.718;2023-01-08T09:30:39;18.13;;;6.95;;
74233;SDS011;62591;55.764;37.718;2023-01-08T09:33:08;19.33;;;7.38;;
74233;SDS011;62591;55.764;37.718;2023-01-08T09:35:37;19.23;;;7.10;;
74233;SDS011;62591;55.764;37.718;2023-01-08T09:38:05;20.45;;;7.03;;
74233;SDS011;62591;55.764;37.718;2023-01-08T09:40:35;17.50;;;6.22;;
74233;SDS011;62591;55.764;37.718;2023-01-08T09:43:06;18.83;;;6.72;;
74233;SDS011;62591;55.764;37.718;2023-01-08T09:45:43;21.60;;;8.00;;
74233;SDS011;62591;55.764;37.718;2023-01-08T09:48:16;19.17;;;7.65;;
74233;SDS011;62591;55.764;37.718;2023-01-08T09:50:49;21.77;;;7.07;;
74233;SDS011;62591;55.764;37.718;2023-01-08T09:53:18;19.38;;;7.07;;
74233;SDS011;62591;55.764;37.718;2023-01-08T09:55:51;20.38;;;7.07;;
74233;SDS011;62591;55.764;37.718;2023-01-08T09:58:36;19.85;;;7.80;;
74233;SDS011;62591;55.764;37.718;2023-01-08T10:01:12;20.83;;;7.03;;
74233;SDS011;62591;55.764;37.718;2023-01-08T10:03:43;18.02;;;6.47;;
74233;SDS011;62591;55.764;37.718;2023-01-08T10:06:14;14.93;;;6.00;;
74233;SDS011;62591;55.764;37.718;2023-01-08T10:08:48;14.20;;;5.95;;
74233;SDS011;62591;55.764;37.718;2023-01-08T10:11:23;16.33;;;6.25;;
74233;SDS011;62591;55.764;37.718;2023-01-08T10:13:55;17.10;;;6.18;;
74233;SDS011;62591;55.764;37.718;2023-01-08T10:16:27;18.92;;;6.65;;
74233;SDS011;62591;55.764;37.718;2023-01-08T10:18:58;17.98;;;6.80;;
74233;SDS011;62591;55.764;37.718;2023-01-08T10:21:28;17.65;;;6.88;;
74233;SDS011;62591;55.764;37.718;2023-01-08T10:23:59;15.07;;;6.30;;
74233;SDS011;62591;55.764;37.718;2023-01-08T10:26:28;16.40;;;6.72;;
74233;SDS011;62591;55.764;37.718;2023-01-08T10:29:04;17.02;;;6.18;;
74233;SDS011;62591;55.764;37.718;2023-01-08T10:31:47;14.60;;;5.95;;
74233;SDS011;62591;55.764;37.718;2023-01-08T10:34:26;17.20;;;6.20;;
74233;SDS011;62591;55.764;37.718;2023-01-08T10:36:58;19.25;;;6.20;;
74233;SDS011;62591;55.764;37.718;2023-01-08T10:39:28;18.55;;;6.55;;
74233;SDS011;62591;55.764;37.718;2023-01-08T10:42:03;14.65;;;6.50;;
74233;SDS011;62591;55.764;37.718;2023-01-08T10:44:33;17.13;;;6.45;;
74233;SDS011;62591;55.764;37.718;2023-01-08T10:47:12;20.48;;;6.82;;
74233;SDS011;62591;55.764;37.718;2023-01-08T10:49:45;17.88;;;6.80;;
74233;SDS011;62591;55.764;37.718;2023-01-08T10:52:23;18.70;;;7.20;;
74233;SDS011;62591;55.764;37.718;2023-01-08T10:54:54;25.13;;;7.47;;
74233;SDS011;62591;55.764;37.718;2023-01-08T10:57:24;15.40;;;7.30;;
74233;SDS011;62591;55.764;37.718;2023-01-08T10:59:54;16.23;;;7.70;;
74233;SDS011;62591;55.764;37.718;2023-01-08T11:02:27;26.40;;;7.57;;
74233;SDS011;62591;55.764;37.718;2023-01-08T11:05:05;21.45;;;7.15;;
74233;SDS011;62591;55.764;37.718;2023-01-08T11:07:40;20.38;;;8.25;;
74233;SDS011;62591;55.764;37.718;2023-01-08T11:10:19;19.05;;;8.15;;
74233;SDS011;62591;55.764;37.718;2023-01-08T11:12:53;17.17;;;7.22;;
74233;SDS011;62591;55.764;37.718;2023-01-08T11:15:29;21.13;;;8.20;;
74233;SDS011;62591;55.764;37.718;2023-01-08T11:18:09;18.40;;;7.95;;
74233;SDS011;62591;55.764;37.718;2023-01-08T11:20:43;26.00;;;8.82;;
74233;SDS011;62591;55.764;37.718;2023-01-08T11:23:14;22.67;;;8.23;;
74233;SDS011;62591;55.764;37.718;2023-01-08T11:25:47;20.70;;;8.10;;
74233;SDS011;62591;55.764;37.718;2023-01-08T11:28:24;24.17;;;8.13;;
74233;SDS011;62591;55.764;37.718;2023-01-08T11:31:00;22.67;;;8.45;;
74233;SDS011;62591;55.764;37.718;2023-01-08T11:33:34;27.25;;;8.70;;
74233;SDS011;62591;55.764;37.718;2023-01-08T11:36:09;24.35;;;8.68;;
74233;SDS011;62591;55.764;37.718;2023-01-08T11:38:46;28.45;;;8.30;;
74233;SDS011;62591;55.764;37.718;2023-01-08T11:44:10;25.55;;;8.02;;
74233;SDS011;62591;55.764;37.718;2023-01-08T11:46:50;23.60;;;8.73;;
74233;SDS011;62591;55.764;37.718;2023-01-08T11:49:31;20.13;;;8.23;;
74233;SDS011;62591;55.764;37.718;2023-01-08T11:52:21;21.63;;;7.65;;
74233;SDS011;62591;55.764;37.718;2023-01-08T11:55:05;17.85;;;7.05;;
74233;SDS011;62591;55.764;37.718;2023-01-08T11:57:46;16.35;;;7.18;;
74233;SDS011;62591;55.764;37.718;2023-01-08T12:00:33;21.13;;;7.40;;
74233;SDS011;62591;55.764;37.718;2023-01-08T12:03:38;21.48;;;7.63;;
74233;SDS011;62591;55.764;37.718;2023-01-08T12:06:15;20.90;;;7.63;;
74233;SDS011;62591;55.764;37.718;2023-01-08T12:08:58;21.98;;;8.40;;
74233;SDS011;62591;55.764;37.718;2023-01-08T12:11:42;18.38;;;6.88;;
74233;SDS011;62591;55.764;37.718;2023-01-08T12:14:27;18.00;;;7.47;;
74233;SDS011;62591;55.764;37.718;2023-01-08T12:17:31;24.23;;;7.25;;
74233;SDS011;62591;55.764;37.718;2023-01-08T12:20:25;21.02;;;7.13;;
74233;SDS011;62591;55.764;37.718;2023-01-08T12:23:07;19.60;;;8.23;;
74233;SDS011;62591;55.764;37.718;2023-01-08T12:25:54;18.17;;;6.78;;
74233;SDS011;62591;55.764;37.718;2023-01-08T12:34:52;12.98;;;6.43;;
74233;SDS011;62591;55.764;37.718;2023-01-08T12:37:32;21.65;;;7.63;;
74233;SDS011;62591;55.764;37.718;2023-01-08T12:40:41;19.77;;;6.97;;
74233;SDS011;62591;55.764;37.718;2023-01-08T12:43:15;22.75;;;8.40;;
74233;SDS011;62591;55.764;37.718;2023-01-08T12:45:49;18.48;;;8.13;;
74233;SDS011;62591;55.764;37.718;2023-01-08T12:48:31;21.40;;;8.18;;
74233;SDS011;62591;55.764;37.718;2023-01-08T12:55:28;15.18;;;5.78;;
74233;SDS011;62591;55.764;37.718;2023-01-08T12:58:07;21.52;;;8.02;;
74233;SDS011;62591;55.764;37.718;2023-01-08T13:00:46;21.30;;;8.45;;
74233;SDS011;62591;55.764;37.718;2023-01-08T13:03:22;21.02;;;8.95;;
74233;SDS011;62591;55.764;37.718;2023-01-08T13:06:03;22.85;;;8.65;;
74233;SDS011;62591;55.764;37.718;2023-01-08T13:08:35;22.67;;;8.60;;
74233;SDS011;62591;55.764;37.718;2023-01-08T13:11:06;25.08;;;9.43;;
74233;SDS011;62591;55.764;37.718;2023-01-08T13:13:38;33.65;;;10.80;;
74233;SDS011;62591;55.764;37.718;2023-01-08T13:16:19;21.00;;;7.85;;
74233;SDS011;62591;55.764;37.718;2023-01-08T13:18:50;19.90;;;8.07;;
74233;SDS011;62591;55.764;37.718;2023-01-08T13:21:28;24.05;;;8.23;;
74233;SDS011;62591;55.764;37.718;2023-01-08T13:24:04;23.55;;;7.68;;
74233;SDS011;62591;55.764;37.718;2023-01-08T13:26:34;25.27;;;8.02;;
74233;SDS011;62591;55.764;37.718;2023-01-08T13:35:16;19.83;;;7.43;;
74233;SDS011;62591;55.764;37.718;2023-01-08T13:37:48;17.08;;;6.25;;
74233;SDS011;62591;55.764;37.718;2023-01-08T13:40:37;20.58;;;8.02;;
74233;SDS011;62591;55.764;37.718;2023-01-08T13:43:19;19.55;;;7.50;;
74233;SDS011;62591;55.764;37.718;2023-01-08T13:46:06;17.40;;;7.68;;
74233;SDS011;62591;55.764;37.718;2023-01-08T13:48:46;24.63;;;7.85;;
74233;SDS011;62591;55.764;37.718;2023-01-08T13:51:27;22.23;;;7.50;;
74233;SDS011;62591;55.764;37.718;2023-01-08T13:54:05;18.23;;;7.45;;
74233;SDS011;62591;55.764;37.718;2023-01-08T13:56:44;18.55;;;6.50;;
74233;SDS011;62591;55.764;37.718;2023-01-08T13:59:20;19.90;;;7.78;;
74233;SDS011;62591;55.764;37.718;2023-01-08T14:02:03;24.63;;;8.55;;
74233;SDS011;62591;55.764;37.718;2023-01-08T14:04:48;20.27;;;8.38;;
74233;SDS011;62591;55.764;37.718;2023-01-08T14:07:19;18.58;;;7.60;;
74233;SDS011;62591;55.764;37.718;2023-01-08T14:09:49;20.25;;;8.95;;
74233;SDS011;62591;55.764;37.718;2023-01-08T14:12:19;33.38;;;9.43;;
74233;SDS011;62591;55.764;37.718;2023-01-08T14:14:52;29.38;;;9.25;;
74233;SDS011;62591;55.764;37.718;2023-01-08T14:17:28;26.52;;;9.35;;
74233;SDS011;62591;55.764;37.718;2023-01-08T14:19:58;19.30;;;8.18;;
74233;SDS011;62591;55.764;37.718;2023-01-08T14:22:29;18.50;;;9.73;;
74233;SDS011;62591;55.764;37.718;2023-01-08T14:25:01;24.48;;;8.95;;
74233;SDS011;62591;55.764;37.718;2023-01-08T14:27:33;21.10;;;8.38;;
74233;SDS011;62591;55.764;37.718;2023-01-08T14:30:12;17.80;;;7.28;;
74233;SDS011;62591;55.764;37.718;2023-01-08T14:32:44;18.08;;;6.30;;
74233;SDS011;62591;55.764;37.718;2023-01-08T14:35:14;23.33;;;7.15;;
74233;SDS011;62591;55.764;37.718;2023-01-08T14:37:47;17.08;;;6.88;;
74233;SDS011;62591;55.764;37.718;2023-01-08T14:40:16;21.17;;;8.10;;
74233;SDS011;62591;55.764;37.718;2023-01-08T14:43:01;16.92;;;6.95;;
74233;SDS011;62591;55.764;37.718;2023-01-08T14:45:51;14.40;;;6.78;;
74233;SDS011;62591;55.764;37.718;2023-01-08T14:49:23;16.17;;;6.53;;
74233;SDS011;62591;55.764;37.718;2023-01-08T14:51:55;13.93;;;5.57;;
74233;SDS011;62591;55.764;37.718;2023-01-08T14:54:27;15.85;;;6.82;;
74233;SDS011;62591;55.764;37.718;2023-01-08T14:56:59;16.33;;;6.40;;
74233;SDS011;62591;55.764;37.718;2023-01-08T14:59:30;16.70;;;5.97;;
74233;SDS011;62591;55.764;37.718;2023-01-08T15:02:01;19.00;;;6.20;;
74233;SDS011;62591;55.764;37.718;2023-01-08T15:04:40;15.05;;;5.72;;
74233;SDS011;62591;55.764;37.718;2023-01-08T15:07:19;17.60;;;6.38;;
74233;SDS011;62591;55.764;37.718;2023-01-08T15:09:57;16.52;;;6.65;;
74233;SDS011;62591;55.764;37.718;2023-01-08T15:12:29;16.05;;;6.05;;
74233;SDS011;62591;55.764;37.718;2023-01-08T15:15:10;13.57;;;5.75;;
74233;SDS011;62591;55.764;37.718;2023-01-08T15:17:45;15.75;;;6.20;;
74233;SDS011;62591;55.764;37.718;2023-01-08T15:20:19;16.02;;;5.65;;
74233;SDS011;62591;55.764;37.718;2023-01-08T15:23:01;14.45;;;5.80;;